Time;durP1;ratioP1;P1;durP2;ratioP2;P2;SDS_P1;SDS_P2;PMS_P1;PMS_P2;Temp;Humidity;BMP_temperature;BMP_pressure;BME280_temperature;BME280_humidity;BME280_pressure;Samples;Min_cycle;Max_cycle;Signal;HPM_P1;HPM_P2
2021/10/17 00:00:46;;;;;;;;;;;;;;;18.42;58.25;99869.84;2074253;28;20382;-38
2021/10/17 00:01:46;;;;;;;;;;;;;;;18.42;58.08;99861.66;2074077;28;20339;-39
2021/10/17 00:02:48;;;;;;;;;;;;;;;18.41;58.23;99868.09;2078644;28;19917;-38
2021/10/17 00:03:48;;;;;;;;;;;;;;;18.42;58.08;99867.13;2075119;28;19932;-38
2021/10/17 00:04:48;;;;;;;;;;;;;;;18.42;58.19;99867.13;2075865;28;19917;-38
2021/10/17 00:05:49;;;;;;;;;;;;;;;18.41;58.09;99862.66;2075225;28;20015;-38
2021/10/17 00:06:49;;;;;;;;;;;;;;;18.41;58.29;99859.91;2077004;28;20366;-38
2021/10/17 00:07:50;;;;;;;;;;;;;;;18.42;58.08;99864.38;2078632;28;19948;-38
2021/10/17 00:08:50;;;;;;;;;;;;;;;18.41;58.28;99861.78;2075653;28;20019;-39
2021/10/17 00:09:50;;;;;;;;;;;;;;;18.41;58.30;99862.66;2075892;28;20353;-38
2021/10/17 00:10:50;;;;;;;;;;;;;;;18.40;58.08;99854.63;2076939;28;19926;-38
2021/10/17 00:11:51;;;;;;;;;;;;;;;18.40;58.19;99858.22;2072297;28;19917;-38
2021/10/17 00:12:55;;;;;;;;;;;;;;;18.41;58.18;99862.66;2077137;28;20100;-38
2021/10/17 00:13:56;;;;;;;;;;;;;;;18.40;58.24;99860.09;2074226;28;19913;-38
2021/10/17 00:14:56;;;;;;;;;;;;;;;18.40;58.12;99855.47;2077602;28;20003;-38
2021/10/17 00:15:56;;;;;;;;;;;;;;;18.41;58.18;99857.19;2076382;28;19916;-38
2021/10/17 00:16:57;;;;;;;;;;;;;;;18.41;58.16;99857.19;2073928;28;19927;-39
2021/10/17 00:17:57;;;;;;;;;;;;;;;18.40;58.22;99855.47;2076822;28;19917;-38
2021/10/17 00:18:57;;;;;;;;;;;;;;;18.40;58.18;99852.75;2079190;28;19916;-38
2021/10/17 00:19:58;;;;;;;;;;;;;;;18.40;58.35;99850.03;2075349;28;19921;-38
2021/10/17 00:20:58;;;;;;;;;;;;;;;18.40;58.35;99843.72;2077001;28;19975;-38
2021/10/17 00:21:59;;;;;;;;;;;;;;;18.40;58.38;99850.03;2076174;28;19917;-38
2021/10/17 00:22:59;;;;;;;;;;;;;;;18.40;58.35;99850.03;2074272;28;19916;-38
2021/10/17 00:23:59;;;;;;;;;;;;;;;18.40;58.48;99850.03;2076557;28;19917;-38
2021/10/17 00:25:00;;;;;;;;;;;;;;;18.40;58.39;99852.75;2075582;28;19913;-38
2021/10/17 00:26:00;;;;;;;;;;;;;;;18.40;58.39;99843.72;2077778;28;19948;-38
2021/10/17 00:27:01;;;;;;;;;;;;;;;18.40;58.49;99846.44;2075865;28;20534;-38
2021/10/17 00:28:01;;;;;;;;;;;;;;;18.40;58.46;99852.75;2077038;28;19917;-39
2021/10/17 00:29:02;;;;;;;;;;;;;;;18.39;58.64;99851.00;2078367;28;20278;-38
2021/10/17 00:30:03;;;;;;;;;;;;;;;18.40;58.56;99858.22;2077108;28;20012;-38
2021/10/17 00:31:04;;;;;;;;;;;;;;;18.39;58.44;99851.00;2074822;28;20169;-38
2021/10/17 00:32:04;;;;;;;;;;;;;;;18.40;58.54;99860.94;2077597;28;20213;-38
2021/10/17 00:33:04;;;;;;;;;;;;;;;18.39;58.40;99851.00;2076299;28;19913;-38
2021/10/17 00:34:05;;;;;;;;;;;;;;;18.39;58.46;99853.75;2078096;28;20348;-38
2021/10/17 00:35:06;;;;;;;;;;;;;;;18.40;58.62;99849.19;2076574;28;19940;-38
2021/10/17 00:36:06;;;;;;;;;;;;;;;18.39;58.50;99853.75;2073305;28;19982;-38
2021/10/17 00:37:07;;;;;;;;;;;;;;;18.40;58.53;99860.94;2076604;28;20565;-38
2021/10/17 00:38:07;;;;;;;;;;;;;;;18.39;58.44;99853.75;2076595;28;19955;-38
2021/10/17 00:39:08;;;;;;;;;;;;;;;18.39;58.57;99853.75;2076327;28;19947;-38
2021/10/17 00:40:09;;;;;;;;;;;;;;;18.39;58.53;99855.63;2076004;28;19917;-38
2021/10/17 00:41:10;;;;;;;;;;;;;;;18.38;58.52;99854.78;2077009;28;19916;-38
2021/10/17 00:42:10;;;;;;;;;;;;;;;18.39;58.63;99852.91;2075356;28;19955;-38
2021/10/17 00:43:11;;;;;;;;;;;;;;;18.38;58.60;99852.03;2077149;28;20231;-38
2021/10/17 00:44:18;;;;;;;;;;;;;;;18.38;58.48;99848.47;2075088;28;19917;-38
2021/10/17 00:45:20;;;;;;;;;;;;;;;18.38;58.60;99845.72;2076590;28;20402;-38
2021/10/17 00:46:21;;;;;;;;;;;;;;;18.39;58.71;99841.97;2076502;28;19979;-38
2021/10/17 00:47:21;;;;;;;;;;;;;;;18.38;58.51;99849.31;2077038;28;19943;-38
2021/10/17 00:48:22;;;;;;;;;;;;;;;18.38;58.74;99846.59;2077547;28;20558;-38
2021/10/17 00:49:22;;;;;;;;;;;;;;;18.38;58.67;99852.03;2077951;28;19916;-38
2021/10/17 00:50:22;;;;;;;;;;;;;;;18.37;58.76;99844.88;2069609;28;19943;-38
2021/10/17 00:51:23;;;;;;;;;;;;;;;18.37;58.87;99844.88;2076168;28;20238;-38
2021/10/17 00:52:23;;;;;;;;;;;;;;;18.38;58.77;99852.03;2075710;28;19923;-38
2021/10/17 00:53:23;;;;;;;;;;;;;;;18.37;58.71;99839.41;2076112;28;19959;-38
2021/10/17 00:54:24;;;;;;;;;;;;;;;18.37;58.82;99841.25;2076106;28;19917;-38
2021/10/17 00:55:28;;;;;;;;;;;;;;;18.37;58.77;99850.34;2080566;28;19919;-38
2021/10/17 00:56:29;;;;;;;;;;;;;;;18.37;58.88;99849.44;2077689;28;19964;-38
2021/10/17 00:57:29;;;;;;;;;;;;;;;18.36;58.90;99843.13;2077874;28;19966;-38
2021/10/17 00:58:29;;;;;;;;;;;;;;;18.37;58.76;99844.88;2074788;28;20614;-38
2021/10/17 00:59:29;;;;;;;;;;;;;;;18.37;58.80;99849.44;2075710;28;20012;-38
2021/10/17 01:00:30;;;;;;;;;;;;;;;18.37;58.73;99844.88;2076723;28;20243;-38
2021/10/17 01:01:30;;;;;;;;;;;;;;;18.37;58.82;99844.00;2076594;28;19924;-38
2021/10/17 01:02:30;;;;;;;;;;;;;;;18.36;58.70;99843.13;2075429;28;19924;-38
2021/10/17 01:03:31;;;;;;;;;;;;;;;18.36;58.74;99843.13;2073586;28;19920;-38
2021/10/17 01:04:32;;;;;;;;;;;;;;;18.37;58.83;99838.53;2074632;28;20207;-38
2021/10/17 01:05:32;;;;;;;;;;;;;;;18.36;58.87;99832.22;2073381;28;19917;-38
2021/10/17 01:06:33;;;;;;;;;;;;;;;18.37;58.92;99835.81;2077621;28;20353;-38
2021/10/17 01:07:33;;;;;;;;;;;;;;;18.36;58.88;99834.97;2077082;28;19931;-38
2021/10/17 01:08:34;;;;;;;;;;;;;;;18.36;58.85;99834.97;2078206;28;20389;-38
2021/10/17 01:09:35;;;;;;;;;;;;;;;18.35;58.79;99832.41;2075718;28;19917;-38
2021/10/17 01:10:35;;;;;;;;;;;;;;;18.36;58.93;99832.22;2077180;28;19913;-38
2021/10/17 01:11:39;;;;;;;;;;;;;;;18.36;58.84;99837.69;2076380;28;19915;-38
2021/10/17 01:12:40;;;;;;;;;;;;;;;18.34;58.64;99828.78;2075868;28;21158;-38
2021/10/17 01:13:40;;;;;;;;;;;;;;;18.35;58.85;99829.66;2076540;28;20387;-38
2021/10/17 01:14:40;;;;;;;;;;;;;;;18.34;58.81;99831.50;2077067;28;20311;-38
2021/10/17 01:15:41;;;;;;;;;;;;;;;18.34;58.97;99834.25;2074992;28;19968;-38
2021/10/17 01:16:41;;;;;;;;;;;;;;;18.35;58.94;99830.53;2073486;28;20211;-38
2021/10/17 01:17:41;;;;;;;;;;;;;;;18.34;58.75;99831.50;2075057;28;19909;-38
2021/10/17 01:18:41;;;;;;;;;;;;;;;18.35;58.78;99829.66;2074765;28;19913;-38
2021/10/17 01:19:45;;;;;;;;;;;;;;;18.34;58.92;99828.78;2074894;28;19932;-38
2021/10/17 01:20:45;;;;;;;;;;;;;;;18.34;58.80;99839.69;2072302;28;19917;-38
2021/10/17 01:21:46;;;;;;;;;;;;;;;18.33;58.87;99827.06;2081438;28;19932;-38
2021/10/17 01:22:46;;;;;;;;;;;;;;;18.34;58.87;99826.06;2075552;28;19920;-38
2021/10/17 01:23:47;;;;;;;;;;;;;;;18.34;58.92;99828.78;2072224;28;19913;-38
2021/10/17 01:24:47;;;;;;;;;;;;;;;18.34;58.98;99828.78;2070653;28;19921;-38
2021/10/17 01:25:48;;;;;;;;;;;;;;;18.33;58.79;99829.81;2075336;28;20390;-38
2021/10/17 01:26:48;;;;;;;;;;;;;;;18.34;58.78;99828.78;2076715;28;19916;-38
2021/10/17 01:27:49;;;;;;;;;;;;;;;18.34;58.79;99827.94;2075311;28;20389;-39
2021/10/17 01:28:49;;;;;;;;;;;;;;;18.34;58.89;99834.25;2073703;28;19913;-38
2021/10/17 01:29:49;;;;;;;;;;;;;;;18.34;58.92;99828.78;2073025;28;20003;-38
2021/10/17 01:30:50;;;;;;;;;;;;;;;18.34;58.69;99828.78;2070230;28;20243;-38
2021/10/17 01:31:52;;;;;;;;;;;;;;;18.34;58.85;99831.50;2075868;28;19921;-38
2021/10/17 01:32:52;;;;;;;;;;;;;;;18.34;58.85;99825.19;2077649;28;19927;-38
2021/10/17 01:33:52;;;;;;;;;;;;;;;18.33;58.73;99824.34;2076865;28;20023;-38
2021/10/17 01:34:53;;;;;;;;;;;;;;;18.33;58.71;99827.06;2076959;28;19952;-38
2021/10/17 01:35:53;;;;;;;;;;;;;;;18.33;58.81;99827.06;2075619;28;19967;-38
2021/10/17 01:36:53;;;;;;;;;;;;;;;18.33;58.80;99827.06;2074210;28;19917;-38
2021/10/17 01:37:54;;;;;;;;;;;;;;;18.33;58.86;99827.06;2076727;28;19952;-38
2021/10/17 01:38:54;;;;;;;;;;;;;;;18.32;58.88;99819.88;2071765;28;19971;-38
2021/10/17 01:39:54;;;;;;;;;;;;;;;18.32;58.70;99819.88;2076020;28;19924;-38
2021/10/17 01:40:55;;;;;;;;;;;;;;;18.33;58.85;99818.91;2076889;28;20342;-38
2021/10/17 01:41:55;;;;;;;;;;;;;;;18.33;58.68;99826.22;2073298;28;19917;-38
2021/10/17 01:42:55;;;;;;;;;;;;;;;18.33;58.83;99820.78;2077254;28;20258;-38
2021/10/17 01:44:06;;;;;;;;;;;;;;;18.32;58.78;99817.16;2076699;28;20557;-38
2021/10/17 01:45:06;;;;;;;;;;;;;;;18.33;58.86;99821.63;2078028;28;19917;-38
2021/10/17 01:46:07;;;;;;;;;;;;;;;18.33;58.73;99820.78;2071809;28;19928;-38
2021/10/17 01:47:07;;;;;;;;;;;;;;;18.32;58.81;99817.16;2071489;28;20303;-38
2021/10/17 01:48:07;;;;;;;;;;;;;;;18.32;58.81;99817.16;2069751;28;19920;-38
2021/10/17 01:49:10;;;;;;;;;;;;;;;18.33;58.90;99824.34;2073272;28;19921;-38
2021/10/17 01:50:12;;;;;;;;;;;;;;;18.32;58.71;99822.63;2077456;28;19920;-38
2021/10/17 01:51:12;;;;;;;;;;;;;;;18.32;58.84;99824.50;2078090;28;19927;-38
2021/10/17 01:52:12;;;;;;;;;;;;;;;18.32;58.74;99824.50;2074604;28;19928;-38
2021/10/17 01:53:13;;;;;;;;;;;;;;;18.31;58.80;99823.63;2078058;28;20771;-38
2021/10/17 01:54:13;;;;;;;;;;;;;;;18.33;58.87;99826.22;2074182;28;19921;-38
2021/10/17 01:55:14;;;;;;;;;;;;;;;18.32;58.90;99824.50;2076429;28;20003;-38
2021/10/17 01:56:14;;;;;;;;;;;;;;;18.33;58.71;99826.22;2075116;28;20120;-38
2021/10/17 01:57:14;;;;;;;;;;;;;;;18.31;58.73;99818.19;2076322;28;20116;-38
2021/10/17 01:58:15;;;;;;;;;;;;;;;18.32;58.86;99819.03;2076455;28;19913;-38
2021/10/17 01:59:15;;;;;;;;;;;;;;;18.32;58.73;99821.75;2080860;28;19920;-38
2021/10/17 02:00:15;;;;;;;;;;;;;;;18.32;58.88;99824.50;2077147;28;20354;-38
2021/10/17 02:01:16;;;;;;;;;;;;;;;18.31;58.69;99826.38;2074392;28;19923;-38
2021/10/17 02:02:16;;;;;;;;;;;;;;;18.32;58.84;99824.50;2075611;28;19912;-38
2021/10/17 02:03:16;;;;;;;;;;;;;;;18.31;58.89;99820.91;2075865;28;20448;-38
2021/10/17 02:04:17;;;;;;;;;;;;;;;18.32;58.84;99824.50;2076307;28;19908;-38
2021/10/17 02:05:17;;;;;;;;;;;;;;;18.31;58.87;99823.63;2074999;28;20032;-39
2021/10/17 02:06:17;;;;;;;;;;;;;;;18.31;58.87;99823.63;2076857;28;20282;-38
2021/10/17 02:07:17;;;;;;;;;;;;;;;18.31;58.76;99818.19;2071650;28;20426;-38
2021/10/17 02:08:18;;;;;;;;;;;;;;;18.31;58.71;99820.91;2074485;28;19959;-38
2021/10/17 02:09:18;;;;;;;;;;;;;;;18.31;58.88;99820.91;2076503;28;19921;-38
2021/10/17 02:10:18;;;;;;;;;;;;;;;18.31;58.73;99820.06;2076447;28;19917;-38
2021/10/17 02:11:19;;;;;;;;;;;;;;;18.31;58.80;99814.59;2074159;28;20133;-38
2021/10/17 02:12:21;;;;;;;;;;;;;;;18.31;58.75;99817.31;2074221;28;20013;-38
2021/10/17 02:13:21;;;;;;;;;;;;;;;18.30;58.86;99813.75;2074313;28;20070;-38
2021/10/17 02:14:22;;;;;;;;;;;;;;;18.31;58.99;99817.31;2074476;28;19905;-38
2021/10/17 02:15:22;;;;;;;;;;;;;;;18.30;58.83;99819.19;2075097;28;20003;-38
2021/10/17 02:16:23;;;;;;;;;;;;;;;18.30;58.96;99816.47;2077300;28;19945;-38
2021/10/17 02:17:23;;;;;;;;;;;;;;;18.30;58.96;99813.75;2073486;28;20246;-38
2021/10/17 02:18:23;;;;;;;;;;;;;;;18.29;58.92;99806.56;2074040;28;19925;-38
2021/10/17 02:19:24;;;;;;;;;;;;;;;18.29;58.84;99814.75;2075639;28;19921;-38
2021/10/17 02:20:24;;;;;;;;;;;;;;;18.29;58.75;99822.94;2074143;28;19979;-38
2021/10/17 02:21:24;;;;;;;;;;;;;;;18.29;58.90;99809.28;2080014;28;19927;-38
2021/10/17 02:22:25;;;;;;;;;;;;;;;18.29;58.75;99814.75;2079412;28;19912;-39
2021/10/17 02:23:25;;;;;;;;;;;;;;;18.29;58.99;99808.44;2080764;28;19967;-38
2021/10/17 02:24:25;;;;;;;;;;;;;;;18.29;58.96;99817.47;2076590;28;19905;-38
2021/10/17 02:25:26;;;;;;;;;;;;;;;18.28;58.91;99810.31;2074627;28;20321;-38
2021/10/17 02:26:26;;;;;;;;;;;;;;;18.27;58.78;99808.56;2076445;28;20006;-38
2021/10/17 02:27:27;;;;;;;;;;;;;;;18.28;58.82;99813.03;2075140;28;19921;-38
2021/10/17 02:28:27;;;;;;;;;;;;;;;18.28;58.87;99815.75;2076225;28;19924;-38
2021/10/17 02:29:27;;;;;;;;;;;;;;;18.29;58.81;99819.34;2079231;28;19935;-38
2021/10/17 02:30:28;;;;;;;;;;;;;;;18.27;58.91;99811.28;2076922;28;19933;-38
2021/10/17 02:31:28;;;;;;;;;;;;;;;18.28;58.94;99817.63;2077913;28;20291;-38
2021/10/17 02:32:29;;;;;;;;;;;;;;;18.27;58.97;99815.91;2073769;28;19909;-38
2021/10/17 02:33:30;;;;;;;;;;;;;;;18.27;58.94;99816.75;2069685;28;19917;-38
2021/10/17 02:34:30;;;;;;;;;;;;;;;18.27;58.88;99810.44;2076873;28;20341;-38
2021/10/17 02:35:31;;;;;;;;;;;;;;;18.28;58.85;99817.63;2071045;28;19932;-38
2021/10/17 02:36:31;;;;;;;;;;;;;;;18.27;58.94;99805.84;2077719;28;20290;-38
2021/10/17 02:37:31;;;;;;;;;;;;;;;18.27;58.94;99814.03;2078020;28;19971;-38
2021/10/17 02:38:32;;;;;;;;;;;;;;;18.26;58.87;99820.50;2077449;28;20310;-38
2021/10/17 02:39:32;;;;;;;;;;;;;;;18.26;58.84;99817.78;2077690;28;19925;-38
2021/10/17 02:40:32;;;;;;;;;;;;;;;18.26;58.87;99815.06;2077291;28;19916;-38
2021/10/17 02:41:32;;;;;;;;;;;;;;;18.27;58.97;99818.63;2077010;28;20345;-38
2021/10/17 02:42:33;;;;;;;;;;;;;;;18.26;58.99;99815.06;2077550;28;19924;-38
2021/10/17 02:43:33;;;;;;;;;;;;;;;18.26;58.91;99809.59;2078810;28;19924;-38
2021/10/17 02:44:33;;;;;;;;;;;;;;;18.26;58.84;99809.59;2074893;28;19916;-38
2021/10/17 02:45:35;;;;;;;;;;;;;;;18.26;59.11;99804.13;2076510;28;19917;-38
2021/10/17 02:46:35;;;;;;;;;;;;;;;18.26;58.89;99811.47;2076387;28;19979;-38
2021/10/17 02:47:36;;;;;;;;;;;;;;;18.25;59.12;99796.97;2074107;28;19913;-38
2021/10/17 02:48:36;;;;;;;;;;;;;;;18.26;59.13;99801.41;2077366;28;19982;-38
2021/10/17 02:49:36;;;;;;;;;;;;;;;18.25;58.86;99799.69;2073044;28;19917;-38
2021/10/17 02:50:37;;;;;;;;;;;;;;;18.25;59.02;99796.97;2078893;28;19916;-38
2021/10/17 02:51:37;;;;;;;;;;;;;;;18.26;59.10;99798.69;2075203;28;20016;-38
2021/10/17 02:52:37;;;;;;;;;;;;;;;18.25;58.98;99786.06;2077771;28;19913;-38
2021/10/17 02:53:38;;;;;;;;;;;;;;;18.25;59.05;99796.09;2079165;28;20627;-38
2021/10/17 02:54:38;;;;;;;;;;;;;;;18.25;59.01;99791.53;2075046;28;19924;-38
2021/10/17 02:55:38;;;;;;;;;;;;;;;18.25;59.23;99794.25;2073434;28;19920;-38
2021/10/17 02:56:39;;;;;;;;;;;;;;;18.24;59.08;99792.50;2076669;28;19917;-38
2021/10/17 02:57:39;;;;;;;;;;;;;;;18.25;58.90;99786.06;2079594;28;19917;-38
2021/10/17 02:58:39;;;;;;;;;;;;;;;18.25;59.10;99799.69;2076627;28;19986;-38
2021/10/17 02:59:40;;;;;;;;;;;;;;;18.24;59.02;99795.25;2078434;28;20228;-38
2021/10/17 03:00:40;;;;;;;;;;;;;;;18.25;59.12;99794.25;2078435;28;19913;-38
2021/10/17 03:01:40;;;;;;;;;;;;;;;18.24;58.96;99797.97;2070710;28;19917;-38
2021/10/17 03:02:41;;;;;;;;;;;;;;;18.25;58.97;99790.63;2075480;28;19991;-38
2021/10/17 03:03:41;;;;;;;;;;;;;;;18.26;59.00;99790.50;2077989;28;19917;-38
2021/10/17 03:04:41;;;;;;;;;;;;;;;18.24;58.98;99781.59;2074206;28;20331;-38
2021/10/17 03:05:41;;;;;;;;;;;;;;;18.25;59.05;99786.06;2074075;28;19970;-38
2021/10/17 03:06:42;;;;;;;;;;;;;;;18.24;58.81;99784.31;2076327;28;19916;-38
2021/10/17 03:07:42;;;;;;;;;;;;;;;18.25;59.00;99794.25;2077781;28;20314;-38
2021/10/17 03:08:42;;;;;;;;;;;;;;;18.25;58.98;99785.19;2073751;28;19921;-38
2021/10/17 03:09:43;;;;;;;;;;;;;;;18.25;58.95;99785.19;2078192;28;19917;-38
2021/10/17 03:10:43;;;;;;;;;;;;;;;18.24;58.92;99789.78;2078347;28;19917;-38
2021/10/17 03:11:43;;;;;;;;;;;;;;;18.24;58.94;99783.47;2076549;28;20145;-38
2021/10/17 03:12:44;;;;;;;;;;;;;;;18.24;58.94;99788.94;2078656;28;20097;-38
2021/10/17 03:13:44;;;;;;;;;;;;;;;18.24;58.89;99795.25;2074069;28;19924;-38
2021/10/17 03:14:44;;;;;;;;;;;;;;;18.24;58.96;99795.25;2075801;28;20006;-38
2021/10/17 03:15:44;;;;;;;;;;;;;;;18.24;59.13;99795.25;2076136;28;20255;-38
2021/10/17 03:16:47;;;;;;;;;;;;;;;18.25;58.95;99790.63;2076168;28;19931;-38
2021/10/17 03:17:48;;;;;;;;;;;;;;;18.24;59.08;99783.47;2078183;28;19916;-38
2021/10/17 03:18:48;;;;;;;;;;;;;;;18.23;58.90;99792.66;2076962;28;20420;-38
2021/10/17 03:19:49;;;;;;;;;;;;;;;18.23;58.88;99793.53;2076123;28;20354;-38
2021/10/17 03:20:49;;;;;;;;;;;;;;;18.23;59.00;99782.63;2078051;28;19909;-38
2021/10/17 03:21:50;;;;;;;;;;;;;;;18.23;59.03;99787.19;2077306;28;19917;-38
2021/10/17 03:22:50;;;;;;;;;;;;;;;18.24;59.09;99783.47;2078605;28;20289;-38
2021/10/17 03:23:50;;;;;;;;;;;;;;;18.23;58.86;99779.91;2076898;28;19917;-38
2021/10/17 03:24:51;;;;;;;;;;;;;;;18.22;58.87;99775.44;2077041;28;19982;-38
2021/10/17 03:25:51;;;;;;;;;;;;;;;18.23;59.05;99776.28;2077763;28;20246;-38
2021/10/17 03:26:51;;;;;;;;;;;;;;;18.22;59.02;99775.44;2076538;28;19913;-38
2021/10/17 03:27:51;;;;;;;;;;;;;;;18.23;59.07;99777.16;2079217;28;19988;-38
2021/10/17 03:28:52;;;;;;;;;;;;;;;18.23;59.12;99770.81;2076684;28;19905;-38
2021/10/17 03:29:52;;;;;;;;;;;;;;;18.21;58.89;99773.72;2079797;28;19905;-38
2021/10/17 03:30:54;;;;;;;;;;;;;;;18.23;58.99;99774.44;2078394;28;20380;-38
2021/10/17 03:31:55;;;;;;;;;;;;;;;18.22;58.83;99775.44;2075835;28;19974;-38
2021/10/17 03:32:55;;;;;;;;;;;;;;;18.23;58.90;99765.38;2075985;28;19935;-38
2021/10/17 03:33:56;;;;;;;;;;;;;;;18.21;58.93;99768.28;2078833;28;20255;-38
2021/10/17 03:34:56;;;;;;;;;;;;;;;18.21;58.98;99768.28;2075531;28;19967;-38
2021/10/17 03:35:57;;;;;;;;;;;;;;;18.21;59.23;99766.38;2079506;28;19912;-38
2021/10/17 03:36:58;;;;;;;;;;;;;;;18.21;59.24;99768.28;2076296;28;20003;-38
2021/10/17 03:37:58;;;;;;;;;;;;;;;18.21;59.25;99760.09;2076918;28;19916;-38
2021/10/17 03:38:58;;;;;;;;;;;;;;;18.21;59.16;99765.53;2079330;28;19924;-38
2021/10/17 03:39:59;;;;;;;;;;;;;;;18.21;59.08;99762.81;2075082;28;20237;-38
2021/10/17 03:40:59;;;;;;;;;;;;;;;18.21;59.15;99768.28;2080076;28;19967;-38
2021/10/17 03:41:59;;;;;;;;;;;;;;;18.21;58.99;99769.13;2078191;28;20305;-38
2021/10/17 03:43:00;;;;;;;;;;;;;;;18.21;59.05;99763.66;2076698;28;19916;-38
2021/10/17 03:44:00;;;;;;;;;;;;;;;18.21;59.09;99762.81;2077991;28;19917;-38
2021/10/17 03:45:00;;;;;;;;;;;;;;;18.20;58.91;99761.97;2073890;28;20261;-38
2021/10/17 03:46:01;;;;;;;;;;;;;;;18.20;58.98;99759.22;2074868;28;19943;-38
2021/10/17 03:47:01;;;;;;;;;;;;;;;18.21;59.11;99762.81;2079096;28;20275;-38
2021/10/17 03:48:01;;;;;;;;;;;;;;;18.21;59.18;99762.81;2073982;28;19905;-38
2021/10/17 03:49:02;;;;;;;;;;;;;;;18.20;59.13;99759.22;2080593;28;19915;-38
2021/10/17 03:50:02;;;;;;;;;;;;;;;18.20;59.25;99758.34;2074954;28;19915;-38
2021/10/17 03:51:08;;;;;;;;;;;;;;;18.20;59.21;99761.06;2078376;28;19917;-38
2021/10/17 03:52:08;;;;;;;;;;;;;;;18.20;59.01;99761.97;2076581;28;19916;-38
2021/10/17 03:53:08;;;;;;;;;;;;;;;18.21;59.11;99762.81;2077386;28;20551;-38
2021/10/17 03:54:09;;;;;;;;;;;;;;;18.19;59.04;99754.78;2074665;28;20062;-38
2021/10/17 03:55:09;;;;;;;;;;;;;;;18.21;59.23;99757.34;2075272;28;20347;-38
2021/10/17 03:56:09;;;;;;;;;;;;;;;18.20;59.13;99761.97;2075876;28;19920;-38
2021/10/17 03:57:10;;;;;;;;;;;;;;;18.20;59.22;99753.78;2076559;28;19912;-38
2021/10/17 03:58:11;;;;;;;;;;;;;;;18.20;59.15;99758.34;2072674;28;19913;-38
2021/10/17 03:59:11;;;;;;;;;;;;;;;18.21;58.90;99762.81;2078149;28;19916;-38
2021/10/17 04:00:12;;;;;;;;;;;;;;;18.20;58.94;99761.97;2080903;28;19917;-38
2021/10/17 04:01:12;;;;;;;;;;;;;;;18.19;59.10;99760.22;2073806;28;19944;-38
2021/10/17 04:02:12;;;;;;;;;;;;;;;18.20;59.10;99761.06;2076414;28;19916;-38
2021/10/17 04:03:12;;;;;;;;;;;;;;;18.20;59.07;99755.63;2072372;28;19983;-38
2021/10/17 04:04:13;;;;;;;;;;;;;;;18.19;59.11;99753.91;2077355;28;19928;-38
2021/10/17 04:05:13;;;;;;;;;;;;;;;18.20;59.03;99761.06;2078111;28;19909;-38
2021/10/17 04:06:13;;;;;;;;;;;;;;;18.19;59.12;99754.78;2072792;28;19921;-38
2021/10/17 04:07:14;;;;;;;;;;;;;;;18.18;58.95;99758.53;2077558;28;20378;-38
2021/10/17 04:08:14;;;;;;;;;;;;;;;18.19;59.12;99764.81;2073046;28;19909;-38
2021/10/17 04:09:14;;;;;;;;;;;;;;;18.19;58.93;99757.50;2074589;28;19928;-38
2021/10/17 04:10:14;;;;;;;;;;;;;;;18.18;59.05;99758.53;2076538;28;19909;-38
2021/10/17 04:11:15;;;;;;;;;;;;;;;18.20;59.00;99761.06;2074739;28;19943;-38
2021/10/17 04:12:16;;;;;;;;;;;;;;;18.19;59.09;99759.38;2077804;28;19916;-38
2021/10/17 04:13:16;;;;;;;;;;;;;;;18.20;58.91;99763.81;2077676;28;19936;-38
2021/10/17 04:14:16;;;;;;;;;;;;;;;18.19;58.95;99759.38;2077355;28;19916;-38
2021/10/17 04:15:17;;;;;;;;;;;;;;;18.19;58.96;99764.81;2078691;28;20420;-38
2021/10/17 04:16:17;;;;;;;;;;;;;;;18.20;59.11;99761.06;2076660;28;20382;-38
2021/10/17 04:17:17;;;;;;;;;;;;;;;18.19;59.08;99771.13;2076157;28;19928;-38
2021/10/17 04:18:18;;;;;;;;;;;;;;;18.19;58.99;99765.69;2076382;28;19909;-38
2021/10/17 04:19:18;;;;;;;;;;;;;;;18.18;58.91;99766.72;2077347;28;19920;-38
2021/10/17 04:20:18;;;;;;;;;;;;;;;18.19;59.10;99773.00;2077333;28;19917;-38
2021/10/17 04:21:19;;;;;;;;;;;;;;;18.19;59.04;99775.75;2076676;28;20052;-38
2021/10/17 04:22:19;;;;;;;;;;;;;;;18.19;59.12;99775.75;2078330;28;20378;-38
2021/10/17 04:23:20;;;;;;;;;;;;;;;18.18;59.17;99771.31;2075941;28;20190;-38
2021/10/17 04:24:20;;;;;;;;;;;;;;;18.18;59.05;99769.44;2077006;28;19948;-38
2021/10/17 04:25:20;;;;;;;;;;;;;;;18.19;59.20;99775.75;2075621;28;20429;-38
2021/10/17 04:26:20;;;;;;;;;;;;;;;18.19;59.27;99770.28;2076120;28;20006;-38
2021/10/17 04:27:21;;;;;;;;;;;;;;;18.18;59.07;99776.75;2077391;28;19917;-38
2021/10/17 04:28:21;;;;;;;;;;;;;;;18.18;59.26;99768.59;2075902;28;20011;-38
2021/10/17 04:29:21;;;;;;;;;;;;;;;18.19;59.16;99767.56;2076922;28;19916;-38
2021/10/17 04:30:22;;;;;;;;;;;;;;;18.17;59.22;99767.69;2077274;28;20408;-38
2021/10/17 04:31:22;;;;;;;;;;;;;;;18.17;58.94;99778.59;2075437;28;19917;-38
2021/10/17 04:32:22;;;;;;;;;;;;;;;18.18;59.19;99768.59;2076988;28;19913;-38
2021/10/17 04:33:22;;;;;;;;;;;;;;;18.17;59.09;99772.31;2075717;28;20330;-38
2021/10/17 04:34:23;;;;;;;;;;;;;;;18.16;59.22;99760.53;2075634;28;19915;-38
2021/10/17 04:35:23;;;;;;;;;;;;;;;18.17;59.26;99770.41;2077629;28;20318;-38
2021/10/17 04:36:23;;;;;;;;;;;;;;;18.17;59.25;99766.84;2076687;28;19909;-38
2021/10/17 04:37:24;;;;;;;;;;;;;;;18.18;58.97;99776.75;2077138;28;19916;-38
2021/10/17 04:38:24;;;;;;;;;;;;;;;18.18;58.97;99771.31;2075341;28;19909;-38
2021/10/17 04:39:25;;;;;;;;;;;;;;;18.17;59.17;99769.56;2077761;28;20541;-39
2021/10/17 04:40:25;;;;;;;;;;;;;;;18.17;59.19;99761.38;2076860;28;19972;-38
2021/10/17 04:41:25;;;;;;;;;;;;;;;18.17;58.91;99767.69;2076151;28;19920;-38
2021/10/17 04:42:26;;;;;;;;;;;;;;;18.18;59.14;99769.44;2074729;28;20784;-38
2021/10/17 04:43:26;;;;;;;;;;;;;;;18.17;59.00;99766.84;2076209;28;19921;-38
2021/10/17 04:44:27;;;;;;;;;;;;;;;18.18;58.94;99765.84;2075169;28;19916;-38
2021/10/17 04:45:27;;;;;;;;;;;;;;;18.17;59.10;99764.13;2078289;28;19917;-38
2021/10/17 04:46:27;;;;;;;;;;;;;;;18.17;58.97;99764.97;2074790;28;20242;-38
2021/10/17 04:47:28;;;;;;;;;;;;;;;18.18;58.99;99768.59;2075505;28;19917;-38
2021/10/17 04:48:28;;;;;;;;;;;;;;;18.17;59.26;99766.84;2075870;28;19923;-38
2021/10/17 04:49:29;;;;;;;;;;;;;;;18.17;59.01;99761.38;2075496;28;20413;-38
2021/10/17 04:50:29;;;;;;;;;;;;;;;18.16;59.03;99770.59;2077363;28;20579;-38
2021/10/17 04:51:29;;;;;;;;;;;;;;;18.17;58.95;99766.84;2068888;28;20370;-38
2021/10/17 04:52:29;;;;;;;;;;;;;;;18.16;59.13;99770.59;2074541;28;20019;-38
2021/10/17 04:53:30;;;;;;;;;;;;;;;18.17;59.11;99772.31;2077711;28;19917;-38
2021/10/17 04:54:30;;;;;;;;;;;;;;;18.17;59.18;99769.56;2075834;28;19917;-38
2021/10/17 04:55:30;;;;;;;;;;;;;;;18.16;58.98;99770.59;2076961;28;19921;-38
2021/10/17 04:56:31;;;;;;;;;;;;;;;18.17;59.14;99772.31;2074983;28;20618;-38
2021/10/17 04:57:31;;;;;;;;;;;;;;;18.17;59.04;99772.31;2076351;28;20628;-38
2021/10/17 04:58:31;;;;;;;;;;;;;;;18.16;58.87;99776.06;2077144;28;20024;-38
2021/10/17 04:59:33;;;;;;;;;;;;;;;18.16;59.10;99776.06;2077507;28;19930;-38
2021/10/17 05:00:33;;;;;;;;;;;;;;;18.15;58.87;99775.19;2076977;28;19951;-38
2021/10/17 05:01:34;;;;;;;;;;;;;;;18.16;59.15;99770.59;2076916;28;20463;-38
2021/10/17 05:02:34;;;;;;;;;;;;;;;18.16;58.86;99770.59;2076212;28;19921;-38
2021/10/17 05:03:34;;;;;;;;;;;;;;;18.16;58.94;99773.31;2075239;28;19923;-38
2021/10/17 05:04:38;;;;;;;;;;;;;;;18.15;59.00;99771.59;2075355;28;19967;-38
2021/10/17 05:05:40;;;;;;;;;;;;;;;18.16;58.97;99770.59;2077214;28;19921;-38
2021/10/17 05:06:40;;;;;;;;;;;;;;;18.15;59.03;99768.84;2077027;28;19916;-38
2021/10/17 05:07:43;;;;;;;;;;;;;;;18.14;59.04;99778.91;2077214;28;19917;-38
2021/10/17 05:08:44;;;;;;;;;;;;;;;18.15;59.27;99782.50;2075679;28;19917;-38
2021/10/17 05:09:44;;;;;;;;;;;;;;;18.14;59.10;99778.06;2075966;28;19983;-38
2021/10/17 05:10:44;;;;;;;;;;;;;;;18.14;59.04;99769.88;2076089;28;19915;-38
2021/10/17 05:11:44;;;;;;;;;;;;;;;18.15;59.02;99779.78;2076036;28;20068;-38
2021/10/17 05:12:45;;;;;;;;;;;;;;;18.15;59.10;99779.78;2075376;28;20404;-38
2021/10/17 05:13:45;;;;;;;;;;;;;;;18.15;59.04;99785.22;2077441;28;19913;-39
2021/10/17 05:14:45;;;;;;;;;;;;;;;18.15;59.00;99779.78;2083479;28;19938;-38
2021/10/17 05:15:45;;;;;;;;;;;;;;;18.15;59.14;99779.78;2077303;28;20041;-38